createdAt,value
2023-03-25T00:01:05.731Z,10.63
2023-03-25T00:03:33.134Z,10.59
2023-03-25T00:06:00.250Z,10.58
2023-03-25T00:08:27.165Z,10.56
2023-03-25T00:10:55.059Z,10.53
2023-03-25T00:13:22.171Z,10.49
2023-03-25T00:15:49.884Z,10.47
2023-03-25T00:18:16.575Z,10.43
2023-03-25T00:20:43.432Z,10.39
2023-03-25T00:23:10.090Z,10.37
2023-03-25T00:25:36.638Z,10.36
2023-03-25T00:28:03.345Z,10.29
2023-03-25T00:30:30.182Z,10.27
2023-03-25T00:32:56.845Z,10.25
2023-03-25T00:35:24.311Z,10.23
2023-03-25T00:37:52.271Z,10.23
2023-03-25T00:40:18.936Z,10.18
2023-03-25T00:42:45.575Z,10.18
2023-03-25T00:45:12.805Z,10.14
2023-03-25T00:47:39.470Z,10.13
2023-03-25T00:50:06.791Z,10.14
2023-03-25T00:52:33.523Z,10.13
2023-03-25T00:55:00.154Z,10.13
2023-03-25T00:57:26.738Z,10.08
2023-03-25T00:59:53.475Z,10.08
2023-03-25T01:02:21.076Z,10.09
2023-03-25T01:04:47.908Z,10.07
2023-03-25T01:07:14.636Z,10.08
2023-03-25T01:09:43.759Z,10.05
2023-03-25T01:12:10.329Z,10.05
2023-03-25T01:14:37.082Z,10.05
2023-03-25T01:17:04.056Z,10.04
2023-03-25T01:19:30.665Z,10.06
2023-03-25T01:21:57.525Z,10.06
2023-03-25T01:24:24.167Z,10.05
2023-03-25T01:26:50.766Z,10.12
2023-03-25T01:29:20.374Z,10.16
2023-03-25T01:31:47.248Z,10.18
2023-03-25T01:34:14.658Z,10.22
2023-03-25T01:36:41.325Z,10.24
2023-03-25T01:39:09.052Z,10.27
2023-03-25T01:41:49.189Z,10.27
2023-03-25T01:44:20.695Z,10.28
2023-03-25T01:46:48.854Z,10.33
2023-03-25T01:49:41.168Z,10.32
2023-03-25T01:52:25.403Z,10.34
2023-03-25T01:54:55.086Z,10.42
2023-03-25T01:57:23.413Z,10.45
2023-03-25T01:59:52.050Z,10.49
2023-03-25T02:02:19.182Z,10.52
2023-03-25T02:04:52.305Z,10.55
2023-03-25T02:07:19.173Z,10.61
2023-03-25T02:09:46.144Z,10.64
2023-03-25T02:12:12.937Z,10.67
2023-03-25T02:14:39.715Z,10.71
2023-03-25T02:17:23.106Z,10.75
2023-03-25T02:20:27.364Z,10.74
2023-03-25T02:23:24.443Z,10.81
2023-03-25T02:26:26.042Z,10.80
2023-03-25T02:29:08.964Z,10.89
2023-03-25T02:31:55.020Z,10.92
2023-03-25T02:34:41.944Z,10.99
2023-03-25T02:37:54.065Z,10.95
2023-03-25T02:40:31.487Z,10.90
2023-03-25T02:43:13.055Z,10.93
2023-03-25T02:45:48.260Z,10.96
2023-03-25T02:48:21.291Z,10.97
2023-03-25T02:50:55.301Z,10.90
2023-03-25T02:53:29.429Z,10.89
2023-03-25T02:56:01.941Z,10.84
2023-03-25T02:58:30.719Z,10.76
2023-03-25T03:00:57.670Z,10.77
2023-03-25T03:03:26.074Z,10.71
2023-03-25T03:05:59.347Z,10.68
2023-03-25T03:08:49.731Z,10.65
2023-03-25T03:11:31.303Z,10.58
2023-03-25T03:14:25.645Z,10.59
2023-03-25T03:16:58.744Z,10.58
2023-03-25T03:19:40.678Z,10.52
2023-03-25T03:22:13.914Z,10.51
2023-03-25T03:24:49.432Z,10.55
2023-03-25T03:27:24.850Z,10.48
2023-03-25T03:30:09.952Z,10.52
2023-03-25T03:33:01.603Z,10.54
2023-03-25T03:35:38.417Z,10.59
2023-03-25T03:38:10.242Z,10.57
2023-03-25T03:40:38.615Z,10.59
2023-03-25T03:43:14.123Z,10.61
2023-03-25T03:45:45.809Z,10.59
2023-03-25T03:48:21.447Z,10.59
2023-03-25T03:50:54.110Z,10.55
2023-03-25T03:53:27.544Z,10.55
2023-03-25T03:55:59.947Z,10.47
2023-03-25T03:58:31.592Z,10.50
2023-03-25T04:01:16.931Z,10.42
2023-03-25T04:03:46.321Z,10.52
2023-03-25T04:06:22.316Z,10.50
2023-03-25T04:09:08.018Z,10.43
2023-03-25T04:11:43.092Z,10.42
2023-03-25T04:14:11.345Z,10.40
2023-03-25T04:16:37.917Z,10.25
2023-03-25T04:19:05.844Z,10.27
2023-03-25T04:21:33.583Z,10.22
2023-03-25T04:24:00.343Z,10.22
2023-03-25T04:26:28.820Z,10.13
2023-03-25T04:28:57.644Z,10.09
2023-03-25T04:31:24.998Z,10.06
2023-03-25T04:33:51.711Z,10.02
2023-03-25T04:36:18.316Z,9.95
2023-03-25T04:38:45.097Z,9.95
2023-03-25T04:41:13.061Z,9.87
2023-03-25T04:43:40.076Z,9.82
2023-03-25T04:46:07.142Z,9.75
2023-03-25T04:48:36.498Z,9.77
2023-03-25T04:51:03.228Z,9.74
2023-03-25T04:53:30.329Z,9.70
2023-03-25T04:55:57.265Z,9.66
2023-03-25T04:58:23.896Z,9.71
2023-03-25T05:00:52.093Z,9.68
2023-03-25T05:03:19.410Z,9.55
2023-03-25T05:05:45.994Z,9.68
2023-03-25T05:08:12.656Z,9.73
2023-03-25T05:10:39.241Z,9.72
2023-03-25T05:13:07.826Z,9.76
2023-03-25T05:15:36.798Z,9.76
2023-03-25T05:18:03.409Z,9.74
2023-03-25T05:20:29.983Z,9.74
2023-03-25T05:22:56.707Z,9.69
2023-03-25T05:25:23.351Z,9.70
2023-03-25T05:27:50.106Z,9.66
2023-03-25T05:30:16.898Z,9.67
2023-03-25T05:32:43.660Z,9.69
2023-03-25T05:35:10.298Z,9.72
2023-03-25T05:37:36.999Z,9.73
2023-03-25T05:40:04.250Z,9.74
2023-03-25T05:42:42.196Z,9.71
2023-03-25T05:45:09.913Z,9.74
2023-03-25T05:47:36.495Z,9.72
2023-03-25T05:50:03.312Z,9.72
2023-03-25T05:52:29.919Z,9.78
2023-03-25T05:54:56.551Z,9.79
2023-03-25T05:57:23.100Z,9.85
2023-03-25T05:59:49.706Z,9.90
2023-03-25T06:02:17.205Z,10.08
2023-03-25T06:04:44.368Z,10.11
2023-03-25T06:07:12.069Z,10.22
2023-03-25T06:09:38.652Z,10.29
2023-03-25T06:12:05.534Z,10.33
2023-03-25T06:14:32.301Z,10.46
2023-03-25T06:16:58.883Z,10.56
2023-03-25T06:19:25.656Z,10.61
2023-03-25T06:21:52.353Z,10.63
2023-03-25T06:24:19.163Z,10.69
2023-03-25T06:26:45.966Z,10.73
2023-03-25T06:29:12.642Z,10.74
2023-03-25T06:31:39.282Z,10.78
2023-03-25T06:34:05.966Z,10.81
2023-03-25T06:36:32.633Z,10.88
2023-03-25T06:38:59.308Z,10.89
2023-03-25T06:41:26.674Z,10.92
2023-03-25T06:44:04.613Z,10.91
2023-03-25T06:46:57.230Z,10.93
2023-03-25T06:49:29.583Z,10.94
2023-03-25T06:51:57.500Z,10.93
2023-03-25T06:54:24.513Z,10.90
2023-03-25T06:56:51.082Z,10.82
2023-03-25T06:59:17.771Z,10.80
2023-03-25T07:01:44.662Z,10.77
2023-03-25T07:04:11.279Z,10.74
2023-03-25T07:06:37.958Z,10.66
2023-03-25T07:09:04.684Z,10.60
2023-03-25T07:11:33.131Z,10.61
2023-03-25T07:14:00.135Z,10.51
2023-03-25T07:16:27.389Z,10.54
2023-03-25T07:18:54.193Z,10.49
2023-03-25T07:21:20.982Z,10.49
2023-03-25T07:23:47.625Z,10.47
2023-03-25T07:26:14.834Z,10.44
2023-03-25T07:28:41.518Z,10.42
2023-03-25T07:31:13.941Z,10.42
2023-03-25T07:33:40.590Z,10.53
2023-03-25T07:36:09.213Z,10.48
2023-03-25T07:38:35.929Z,10.48
2023-03-25T07:41:07.425Z,10.49
2023-03-25T07:43:34.018Z,10.49
2023-03-25T07:46:20.064Z,10.46
2023-03-25T07:48:46.653Z,10.41
2023-03-25T07:51:13.211Z,10.40
2023-03-25T07:53:39.920Z,10.49
2023-03-25T07:56:07.211Z,10.56
2023-03-25T07:58:33.831Z,10.57
2023-03-25T08:01:00.425Z,10.60
2023-03-25T08:03:27.574Z,10.64
2023-03-25T08:05:54.627Z,10.68
2023-03-25T08:08:21.311Z,10.72
2023-03-25T08:10:47.977Z,10.71
2023-03-25T08:13:14.612Z,10.66
2023-03-25T08:15:41.340Z,10.74
2023-03-25T08:18:08.117Z,10.77
2023-03-25T08:20:35.724Z,10.71
2023-03-25T08:23:02.562Z,10.79
2023-03-25T08:25:32.539Z,10.81
2023-03-25T08:27:59.229Z,10.81
2023-03-25T08:30:25.814Z,10.89
2023-03-25T08:32:52.836Z,10.96
2023-03-25T08:35:21.026Z,11.11
2023-03-25T08:37:48.767Z,11.15
2023-03-25T08:40:15.412Z,11.30
2023-03-25T08:42:42.146Z,11.38
2023-03-25T08:45:09.671Z,11.48
2023-03-25T08:47:36.298Z,11.50
2023-03-25T08:50:03.635Z,11.56
2023-03-25T08:52:30.228Z,11.59
2023-03-25T08:54:56.865Z,11.62
2023-03-25T08:57:23.578Z,11.65
2023-03-25T08:59:50.353Z,11.69
2023-03-25T09:02:17.047Z,11.66
2023-03-25T09:04:43.638Z,11.67
2023-03-25T09:07:12.350Z,11.67
2023-03-25T09:09:40.519Z,11.64
2023-03-25T09:12:08.207Z,11.64
2023-03-25T09:14:35.020Z,11.67
2023-03-25T09:17:01.632Z,11.44
2023-03-25T09:19:28.373Z,11.58
2023-03-25T09:21:55.045Z,11.63
2023-03-25T09:24:21.888Z,11.65
2023-03-25T09:26:48.921Z,11.64
2023-03-25T09:29:15.637Z,11.69
2023-03-25T09:31:42.708Z,11.65
2023-03-25T09:34:09.492Z,11.70
2023-03-25T09:36:36.222Z,11.69
2023-03-25T09:39:03.453Z,11.80
2023-03-25T09:41:52.284Z,11.89
2023-03-25T09:44:26.891Z,11.97
2023-03-25T09:46:55.080Z,12.15
2023-03-25T09:49:25.407Z,12.27
2023-03-25T09:51:54.736Z,12.43
2023-03-25T09:54:27.101Z,12.52
2023-03-25T09:56:59.667Z,12.64
2023-03-25T09:59:50.271Z,12.62
2023-03-25T10:02:34.430Z,12.75
2023-03-25T10:05:40.298Z,12.89
2023-03-25T10:08:24.923Z,12.99
2023-03-25T10:11:05.684Z,13.14
2023-03-25T10:13:40.554Z,13.29
2023-03-25T10:16:25.930Z,13.38
2023-03-25T10:19:31.120Z,13.39
2023-03-25T10:22:04.990Z,13.49
2023-03-25T10:24:38.223Z,13.55
2023-03-25T10:27:42.928Z,13.52
2023-03-25T10:30:09.460Z,13.49
2023-03-25T10:32:43.804Z,13.51
2023-03-25T10:35:26.207Z,13.54
2023-03-25T10:37:55.453Z,13.59
2023-03-25T10:40:30.272Z,13.58
2023-03-25T10:43:28.040Z,13.58
2023-03-25T10:45:56.961Z,13.58
2023-03-25T10:48:25.963Z,13.79
2023-03-25T10:51:00.788Z,13.82
2023-03-25T10:53:28.593Z,13.89
2023-03-25T10:56:02.333Z,13.90
2023-03-25T10:58:30.400Z,14.02
2023-03-25T11:00:57.098Z,14.01
2023-03-25T11:03:30.827Z,13.93
2023-03-25T11:05:57.846Z,13.81
2023-03-25T11:08:25.598Z,13.70
2023-03-25T11:10:53.184Z,13.72
2023-03-25T11:13:29.996Z,13.65
2023-03-25T11:16:03.293Z,13.69
2023-03-25T11:18:35.287Z,13.59
2023-03-25T11:21:12.536Z,13.49
2023-03-25T11:23:49.514Z,13.46
2023-03-25T11:26:25.022Z,13.49
2023-03-25T11:28:55.102Z,13.48
2023-03-25T11:31:25.192Z,13.46
2023-03-25T11:34:10.758Z,13.53
2023-03-25T11:36:39.465Z,13.70
2023-03-25T11:39:26.045Z,13.69
2023-03-25T11:41:52.789Z,13.76
2023-03-25T11:44:32.562Z,13.70
2023-03-25T11:47:06.043Z,13.76
2023-03-25T11:49:39.059Z,13.85
2023-03-25T11:52:09.623Z,13.94
2023-03-25T11:54:37.484Z,13.95
2023-03-25T11:57:10.145Z,13.96
2023-03-25T11:59:43.064Z,14.00
2023-03-25T12:02:22.117Z,14.02
2023-03-25T12:05:02.770Z,13.82
2023-03-25T12:07:30.334Z,13.92
2023-03-25T12:09:59.381Z,13.83
2023-03-25T12:12:48.376Z,13.88
2023-03-25T12:15:47.133Z,13.91
2023-03-25T12:18:30.350Z,13.91
2023-03-25T12:21:02.992Z,13.99
2023-03-25T12:23:41.710Z,13.99
2023-03-25T12:26:19.057Z,14.06
2023-03-25T12:29:04.662Z,14.07
2023-03-25T12:32:03.345Z,14.11
2023-03-25T12:35:01.575Z,14.14
2023-03-25T12:38:01.169Z,14.10
2023-03-25T12:40:30.816Z,14.16
2023-03-25T12:43:06.281Z,14.19
2023-03-25T12:45:48.465Z,14.15
2023-03-25T12:48:43.780Z,14.17
2023-03-25T12:51:38.244Z,14.21
2023-03-25T12:54:28.339Z,14.28
2023-03-25T12:57:13.643Z,14.24
2023-03-25T13:00:15.442Z,14.35
2023-03-25T13:03:19.766Z,14.30
2023-03-25T13:06:22.014Z,14.28
2023-03-25T13:08:57.530Z,14.32
2023-03-25T13:11:33.196Z,14.35
2023-03-25T13:14:05.545Z,14.35
2023-03-25T13:16:36.033Z,14.34
2023-03-25T13:19:20.520Z,14.28
2023-03-25T13:21:52.852Z,14.26
2023-03-25T13:24:24.908Z,14.31
2023-03-25T13:26:54.252Z,14.34
2023-03-25T13:29:29.912Z,14.24
2023-03-25T13:32:01.407Z,14.21
2023-03-25T13:34:35.889Z,14.09
2023-03-25T13:37:18.796Z,14.01
2023-03-25T13:40:03.773Z,14.12
2023-03-25T13:42:44.935Z,13.96
2023-03-25T13:45:22.473Z,14.04
2023-03-25T13:48:17.758Z,14.17
2023-03-25T13:50:44.803Z,14.10
2023-03-25T13:53:32.707Z,13.96
2023-03-25T13:56:18.104Z,13.91
2023-03-25T13:59:18.555Z,13.93
2023-03-25T14:01:55.299Z,13.87
2023-03-25T14:04:41.355Z,13.92
2023-03-25T14:07:34.409Z,13.92
2023-03-25T14:10:14.316Z,13.92
2023-03-25T14:12:51.731Z,13.86
2023-03-25T14:15:27.916Z,13.85
2023-03-25T14:17:55.285Z,13.83
2023-03-25T14:20:33.388Z,13.62
2023-03-25T14:23:06.129Z,13.69
2023-03-25T14:25:39.131Z,13.64
2023-03-25T14:28:07.520Z,13.57
2023-03-25T14:30:35.171Z,13.52
2023-03-25T14:33:01.980Z,13.53
2023-03-25T14:35:31.402Z,13.52
2023-03-25T14:38:06.900Z,13.44
2023-03-25T14:40:50.741Z,13.22
2023-03-25T14:43:35.969Z,13.41
2023-03-25T14:46:11.746Z,13.35
2023-03-25T14:48:47.616Z,13.25
2023-03-25T14:51:23.595Z,13.37
2023-03-25T14:54:16.003Z,13.50
2023-03-25T14:56:59.747Z,13.58
2023-03-25T14:59:56.234Z,13.65
2023-03-25T15:02:28.211Z,13.65
2023-03-25T15:05:24.024Z,13.78
2023-03-25T15:07:58.354Z,13.91
2023-03-25T15:10:36.669Z,14.02
2023-03-25T15:13:06.543Z,14.15
2023-03-25T15:15:45.390Z,14.34
2023-03-25T15:18:32.721Z,14.42
2023-03-25T15:21:11.744Z,14.51
2023-03-25T15:23:46.468Z,14.56
2023-03-25T15:26:39.761Z,14.55
2023-03-25T15:29:12.198Z,14.60
2023-03-25T15:31:47.832Z,14.61
2023-03-25T15:34:26.145Z,14.63
2023-03-25T15:37:00.469Z,14.58
2023-03-25T15:40:14.319Z,14.50
2023-03-25T15:42:46.711Z,14.44
2023-03-25T15:45:42.842Z,14.30
2023-03-25T15:48:23.365Z,14.24
2023-03-25T15:51:03.300Z,14.20
2023-03-25T15:54:07.472Z,14.14
2023-03-25T15:56:40.944Z,14.19
2023-03-25T15:59:32.545Z,14.15
2023-03-25T16:02:03.397Z,14.06
2023-03-25T16:04:42.478Z,14.02
2023-03-25T16:07:13.315Z,13.87
2023-03-25T16:09:49.658Z,13.85
2023-03-25T16:12:21.584Z,13.83
2023-03-25T16:14:49.215Z,13.74
2023-03-25T16:17:18.365Z,13.63
2023-03-25T16:19:49.610Z,13.70
2023-03-25T16:22:28.408Z,13.66
2023-03-25T16:25:01.934Z,13.81
2023-03-25T16:27:37.724Z,13.90
2023-03-25T16:30:23.411Z,13.83
2023-03-25T16:32:50.273Z,14.00
2023-03-25T16:35:29.078Z,14.16
2023-03-25T16:37:59.621Z,14.19
2023-03-25T16:40:42.372Z,14.17
2023-03-25T16:43:27.882Z,14.22
2023-03-25T16:46:00.302Z,14.26
2023-03-25T16:48:30.581Z,14.23
2023-03-25T16:51:00.004Z,14.11
2023-03-25T16:53:27.920Z,13.97
2023-03-25T16:56:21.988Z,13.75
2023-03-25T16:58:57.691Z,13.79
2023-03-25T17:01:25.409Z,13.91
2023-03-25T17:04:05.530Z,13.93
2023-03-25T17:06:35.410Z,13.89
2023-03-25T17:09:03.020Z,13.94
2023-03-25T17:11:32.172Z,13.90
2023-03-25T17:14:02.427Z,13.89
2023-03-25T17:16:32.377Z,13.69
2023-03-25T17:19:00.903Z,13.60
2023-03-25T17:21:33.475Z,13.58
2023-03-25T17:24:05.472Z,13.43
2023-03-25T17:26:34.790Z,13.44
2023-03-25T17:29:06.374Z,13.31
2023-03-25T17:31:40.725Z,13.24
2023-03-25T17:34:14.692Z,13.13
2023-03-25T17:36:46.244Z,13.06
2023-03-25T17:39:19.591Z,12.96
2023-03-25T17:41:46.923Z,12.87
2023-03-25T17:44:16.734Z,12.79
2023-03-25T17:46:44.059Z,12.65
2023-03-25T17:49:19.152Z,12.50
2023-03-25T17:51:46.726Z,12.46
2023-03-25T17:54:13.500Z,12.35
2023-03-25T17:56:40.411Z,12.25
2023-03-25T17:59:19.445Z,12.12
2023-03-25T18:01:47.830Z,12.07
2023-03-25T18:04:15.426Z,11.98
2023-03-25T18:06:43.354Z,11.85
2023-03-25T18:09:18.303Z,11.79
2023-03-25T18:11:47.312Z,11.67
2023-03-25T18:14:14.130Z,11.60
2023-03-25T18:16:40.917Z,11.59
2023-03-25T18:19:18.783Z,11.51
2023-03-25T18:21:45.619Z,11.50
2023-03-25T18:24:12.662Z,11.43
2023-03-25T18:26:40.615Z,11.40
2023-03-25T18:29:12.937Z,11.33
2023-03-25T18:31:39.546Z,11.30
2023-03-25T18:34:06.271Z,11.27
2023-03-25T18:36:32.851Z,11.23
2023-03-25T18:38:59.464Z,11.20
2023-03-25T18:41:26.076Z,11.18
2023-03-25T18:43:52.640Z,11.14
2023-03-25T18:46:19.246Z,11.14
2023-03-25T18:48:45.786Z,11.14
2023-03-25T18:51:13.723Z,11.12
2023-03-25T18:53:40.874Z,11.12
2023-03-25T18:56:08.032Z,11.07
2023-03-25T18:58:35.611Z,11.03
2023-03-25T19:01:06.060Z,10.94
2023-03-25T19:03:32.947Z,10.98
2023-03-25T19:06:00.804Z,10.94
2023-03-25T19:08:28.029Z,10.91
2023-03-25T19:11:01.774Z,10.89
2023-03-25T19:13:35.033Z,10.86
2023-03-25T19:16:01.572Z,10.86
2023-03-25T19:18:31.345Z,10.78
2023-03-25T19:20:58.039Z,10.74
2023-03-25T19:23:25.041Z,10.67
2023-03-25T19:25:53.053Z,10.66
2023-03-25T19:28:22.068Z,10.68
2023-03-25T19:30:51.200Z,10.64
2023-03-25T19:33:18.654Z,10.56
2023-03-25T19:35:52.769Z,10.49
2023-03-25T19:38:20.532Z,10.45
2023-03-25T19:40:47.247Z,10.42
2023-03-25T19:43:13.878Z,10.39
2023-03-25T19:45:40.587Z,10.37
2023-03-25T19:48:07.168Z,10.39
2023-03-25T19:50:34.366Z,10.37
2023-03-25T19:53:02.752Z,10.30
2023-03-25T19:55:29.712Z,10.26
2023-03-25T19:57:56.288Z,10.22
2023-03-25T20:00:27.842Z,10.24
2023-03-25T20:02:57.302Z,10.21
2023-03-25T20:05:24.744Z,10.19
2023-03-25T20:07:51.486Z,10.14
2023-03-25T20:10:20.956Z,10.12
2023-03-25T20:12:50.904Z,10.12
2023-03-25T20:15:20.027Z,10.11
2023-03-25T20:17:49.635Z,10.07
2023-03-25T20:20:17.094Z,10.01
2023-03-25T20:22:44.665Z,9.95
2023-03-25T20:25:12.661Z,9.98
2023-03-25T20:27:39.656Z,9.95
2023-03-25T20:30:08.836Z,9.89
2023-03-25T20:32:41.452Z,9.89
2023-03-25T20:35:10.465Z,9.87
2023-03-25T20:37:37.245Z,9.80
2023-03-25T20:40:05.444Z,9.73
2023-03-25T20:42:32.012Z,9.70
2023-03-25T20:44:58.680Z,9.72
2023-03-25T20:47:25.292Z,9.73
2023-03-25T20:49:51.955Z,9.70
2023-03-25T20:52:18.625Z,9.69
2023-03-25T20:54:45.288Z,9.65
2023-03-25T20:57:12.081Z,9.63
2023-03-25T20:59:38.743Z,9.62
2023-03-25T21:02:05.430Z,9.59
2023-03-25T21:04:32.198Z,9.57
2023-03-25T21:06:58.885Z,9.56
2023-03-25T21:09:25.469Z,9.60
2023-03-25T21:11:52.073Z,9.63
2023-03-25T21:14:18.878Z,9.65
2023-03-25T21:16:46.139Z,9.66
2023-03-25T21:19:12.963Z,9.68
2023-03-25T21:21:39.665Z,9.68
2023-03-25T21:24:06.682Z,9.69
2023-03-25T21:26:34.246Z,9.70
2023-03-25T21:29:00.956Z,9.72
2023-03-25T21:31:28.738Z,9.77
2023-03-25T21:33:57.034Z,9.75
2023-03-25T21:36:24.958Z,9.68
2023-03-25T21:38:54.520Z,9.70
2023-03-25T21:41:21.152Z,9.78
2023-03-25T21:43:47.812Z,9.80
2023-03-25T21:46:14.574Z,9.82
2023-03-25T21:48:41.248Z,9.80
2023-03-25T21:51:08.236Z,9.82
2023-03-25T21:53:34.808Z,9.80
2023-03-25T21:56:03.022Z,9.82
2023-03-25T21:58:30.675Z,9.71
2023-03-25T22:01:01.838Z,9.78
2023-03-25T22:03:29.378Z,9.80
2023-03-25T22:05:56.976Z,9.78
2023-03-25T22:08:24.405Z,9.76
2023-03-25T22:10:50.949Z,9.73
2023-03-25T22:13:17.503Z,9.73
2023-03-25T22:15:44.136Z,9.72
2023-03-25T22:18:10.836Z,9.74
2023-03-25T22:20:37.390Z,9.71
2023-03-25T22:23:04.134Z,9.72
2023-03-25T22:25:30.800Z,9.72
2023-03-25T22:27:57.511Z,9.72
2023-03-25T22:30:24.163Z,9.69
2023-03-25T22:32:50.778Z,9.70
2023-03-25T22:35:17.497Z,9.62
2023-03-25T22:37:44.220Z,9.56
2023-03-25T22:40:11.579Z,9.60
2023-03-25T22:42:38.302Z,9.55
2023-03-25T22:45:05.583Z,9.53
2023-03-25T22:47:32.262Z,9.54
2023-03-25T22:49:58.847Z,9.56
2023-03-25T22:52:25.457Z,9.56
2023-03-25T22:54:52.150Z,9.52
2023-03-25T22:57:18.773Z,9.52
2023-03-25T22:59:45.431Z,9.50
2023-03-25T23:02:12.088Z,9.52
2023-03-25T23:04:38.684Z,9.51
2023-03-25T23:07:08.313Z,9.52
2023-03-25T23:09:36.740Z,9.53
2023-03-25T23:12:03.440Z,9.41
2023-03-25T23:14:30.068Z,9.50
2023-03-25T23:16:56.711Z,9.52
2023-03-25T23:19:23.290Z,9.52
2023-03-25T23:21:49.886Z,9.53
2023-03-25T23:24:16.431Z,9.49
2023-03-25T23:26:43.305Z,9.49
2023-03-25T23:29:11.633Z,9.49
2023-03-25T23:31:40.885Z,9.50
2023-03-25T23:34:09.459Z,9.47
2023-03-25T23:36:37.125Z,9.46
2023-03-25T23:39:09.980Z,9.43
2023-03-25T23:41:37.270Z,9.43
2023-03-25T23:44:05.204Z,9.43
2023-03-25T23:46:32.194Z,9.43
2023-03-25T23:48:59.028Z,9.41
2023-03-25T23:51:25.576Z,9.43
2023-03-25T23:53:52.648Z,9.45
2023-03-25T23:56:21.514Z,9.48
2023-03-25T23:58:48.710Z,9.51
